Time;durP1;ratioP1;P1;durP2;ratioP2;P2;SDS_P1;SDS_P2;PMS_P1;PMS_P2;Temp;Humidity;BMP_temperature;BMP_pressure;BME280_temperature;BME280_humidity;BME280_pressure;Samples;Min_cycle;Max_cycle;Signal;HPM_P1;HPM_P2
2023/11/19 00:00:37;;;;;;;36.42;6.43;;;12.30;99.90;;;;;;5047657;28;20037;-77
2023/11/19 00:03:03;;;;;;;54.20;8.15;;;12.40;99.90;;;;;;5046568;28;20021;-76
2023/11/19 00:05:28;;;;;;;47.03;7.70;;;12.40;99.90;;;;;;5030061;28;20025;-76
2023/11/19 00:07:54;;;;;;;48.72;7.05;;;12.40;99.90;;;;;;5030021;28;20060;-76
2023/11/19 00:10:20;;;;;;;51.40;8.68;;;12.30;99.90;;;;;;5047486;28;20290;-77
2023/11/19 00:12:49;;;;;;;45.75;7.70;;;12.30;99.90;;;;;;5047008;28;20194;-76
2023/11/19 00:15:15;;;;;;;46.25;6.75;;;12.30;99.90;;;;;;5047636;28;20041;-76
2023/11/19 00:17:47;;;;;;;29.65;5.00;;;12.30;99.90;;;;;;5046294;28;20092;-77
2023/11/19 00:20:19;;;;;;;47.88;6.45;;;12.30;99.90;;;;;;5047057;28;20102;-76
2023/11/19 00:22:48;;;;;;;27.73;3.90;;;12.30;99.90;;;;;;5046226;28;20037;-79
2023/11/19 00:25:13;;;;;;;44.58;8.90;;;12.20;99.90;;;;;;5046066;28;20044;-77
2023/11/19 00:27:39;;;;;;;48.25;7.82;;;12.20;99.90;;;;;;5045905;28;20021;-77
2023/11/19 00:30:06;;;;;;;47.38;7.05;;;12.20;99.90;;;;;;5045813;28;20087;-76
2023/11/19 00:32:36;;;;;;;44.28;6.38;;;12.20;99.90;;;;;;5029586;28;20026;-76
2023/11/19 00:35:02;;;;;;;45.35;6.85;;;12.20;99.90;;;;;;5045946;28;20221;-76
2023/11/19 00:37:28;;;;;;;51.65;6.57;;;12.30;99.90;;;;;;5046650;28;20242;-76
2023/11/19 00:39:56;;;;;;;36.92;5.05;;;12.30;99.90;;;;;;5045665;28;20033;-76
2023/11/19 00:42:21;;;;;;;42.33;7.07;;;12.30;99.90;;;;;;5029612;28;20017;-76
2023/11/19 00:44:47;;;;;;;41.00;5.63;;;12.30;99.90;;;;;;5045152;28;20041;-76
2023/11/19 00:47:13;;;;;;;39.80;6.38;;;12.20;99.90;;;;;;5045287;28;20241;-76
2023/11/19 00:49:39;;;;;;;36.78;6.50;;;12.20;99.90;;;;;;5045415;28;20077;-76
2023/11/19 00:52:06;;;;;;;46.65;7.38;;;12.10;99.90;;;;;;5045609;28;20037;-76
2023/11/19 00:54:32;;;;;;;38.50;6.30;;;12.10;99.90;;;;;;5029213;28;20096;-76
2023/11/19 00:56:58;;;;;;;34.47;5.47;;;12.10;99.90;;;;;;5045510;28;20124;-79
2023/11/19 00:59:23;;;;;;;35.20;5.25;;;12.10;99.90;;;;;;5028732;28;20026;-79
2023/11/19 01:01:49;;;;;;;28.05;5.05;;;12.10;99.90;;;;;;5046339;28;20029;-76
2023/11/19 01:04:15;;;;;;;19.55;4.10;;;12.10;99.90;;;;;;5028932;28;20118;-76
2023/11/19 01:06:42;;;;;;;38.95;5.15;;;12.10;99.90;;;;;;5029055;28;20290;-76
2023/11/19 01:09:08;;;;;;;39.47;6.80;;;12.10;99.90;;;;;;5029036;28;20096;-76
2023/11/19 01:11:34;;;;;;;44.72;6.07;;;12.10;99.90;;;;;;5028516;28;20029;-76
2023/11/19 01:14:00;;;;;;;33.50;4.97;;;12.10;99.90;;;;;;5028519;28;20056;-77
2023/11/19 01:16:26;;;;;;;27.77;5.00;;;12.10;99.90;;;;;;5044999;28;20029;-76
2023/11/19 01:18:52;;;;;;;34.92;6.07;;;12.10;99.90;;;;;;5045022;28;20017;-76
2023/11/19 01:21:18;;;;;;;34.15;4.95;;;12.10;99.90;;;;;;5028715;28;20036;-76
2023/11/19 01:23:43;;;;;;;29.60;4.38;;;12.10;99.90;;;;;;5028294;28;20052;-77
2023/11/19 01:26:12;;;;;;;35.05;5.22;;;12.10;99.90;;;;;;5045883;28;20032;-77
2023/11/19 01:28:44;;;;;;;47.83;6.68;;;12.10;99.90;;;;;;5028425;28;20251;-77
2023/11/19 01:31:15;;;;;;;43.47;6.75;;;12.20;99.90;;;;;;5013797;28;20040;-76
2023/11/19 01:33:41;;;;;;;27.75;4.63;;;12.10;99.90;;;;;;5044787;28;20025;-77
2023/11/19 01:36:07;;;;;;;39.28;5.07;;;12.20;99.90;;;;;;5044808;28;20278;-76
2023/11/19 01:38:34;;;;;;;33.83;5.72;;;12.20;99.90;;;;;;5028124;28;20036;-76
2023/11/19 01:41:00;;;;;;;49.90;7.18;;;12.30;99.90;;;;;;5044587;28;20025;-76
2023/11/19 01:43:41;;;;;;;37.22;5.85;;;12.40;99.90;;;;;;5044592;28;20021;-76
2023/11/19 01:46:06;;;;;;;36.60;4.97;;;12.40;99.90;;;;;;5045456;28;20025;-76
2023/11/19 01:48:36;;;;;;;39.58;5.35;;;12.40;99.90;;;;;;5011407;28;20057;-76
2023/11/19 01:51:02;;;;;;;30.97;4.90;;;12.40;99.90;;;;;;5028201;28;20029;-76
2023/11/19 01:53:27;;;;;;;40.38;6.22;;;12.40;99.90;;;;;;5044470;28;20278;-76
2023/11/19 01:55:53;;;;;;;24.63;4.68;;;12.40;99.90;;;;;;5044131;28;20362;-76
2023/11/19 01:58:19;;;;;;;21.85;3.67;;;12.30;99.90;;;;;;5045337;28;20079;-76
2023/11/19 02:00:45;;;;;;;21.27;3.60;;;12.30;99.90;;;;;;5011680;28;20026;-76
2023/11/19 02:03:11;;;;;;;24.48;3.80;;;12.30;99.90;;;;;;5028110;28;20025;-77
2023/11/19 02:05:37;;;;;;;23.05;4.00;;;12.30;99.90;;;;;;5044307;28;20025;-76
2023/11/19 02:08:03;;;;;;;30.10;3.97;;;12.30;99.90;;;;;;5027883;28;20076;-76
2023/11/19 02:10:29;;;;;;;27.60;4.32;;;12.30;99.90;;;;;;5044436;28;20022;-76
2023/11/19 02:12:55;;;;;;;36.25;5.10;;;12.30;99.90;;;;;;5044252;28;20025;-76
2023/11/19 02:15:24;;;;;;;24.85;4.40;;;12.30;99.90;;;;;;5011407;28;20025;-77
2023/11/19 02:17:50;;;;;;;26.75;4.57;;;12.30;99.90;;;;;;5045106;28;20068;-77
2023/11/19 02:20:16;;;;;;;28.33;4.90;;;12.20;99.90;;;;;;5045085;28;20057;-77
2023/11/19 02:22:41;;;;;;;33.15;5.75;;;12.20;99.90;;;;;;5044231;28;20064;-77
2023/11/19 02:25:08;;;;;;;26.63;4.32;;;12.20;99.90;;;;;;5045305;28;20021;-77
2023/11/19 02:28:01;;;;;;;35.22;4.75;;;12.20;99.90;;;;;;5044104;28;20163;-76
2023/11/19 02:30:28;;;;;;;29.38;5.03;;;12.10;99.90;;;;;;5045200;28;20100;-76
2023/11/19 02:32:57;;;;;;;36.63;5.15;;;12.10;99.90;;;;;;5027892;28;20033;-76
2023/11/19 02:35:31;;;;;;;39.33;6.15;;;12.20;99.90;;;;;;5044933;28;20032;-76
2023/11/19 02:37:57;;;;;;;35.92;6.18;;;12.20;99.90;;;;;;5028860;28;20037;-77
2023/11/19 02:40:24;;;;;;;33.65;5.25;;;12.20;99.90;;;;;;5027584;28;20033;-77
2023/11/19 02:42:50;;;;;;;40.08;5.40;;;12.20;99.90;;;;;;5045190;28;20165;-78
2023/11/19 02:45:16;;;;;;;36.33;4.68;;;12.20;99.90;;;;;;5027526;28;20033;-77
2023/11/19 02:47:42;;;;;;;24.10;4.10;;;12.20;99.90;;;;;;5044011;28;20209;-77
2023/11/19 02:50:14;;;;;;;27.05;4.32;;;12.20;99.90;;;;;;5027451;28;20073;-77
2023/11/19 02:52:41;;;;;;;33.90;4.22;;;12.20;99.90;;;;;;5028367;28;20094;-77
2023/11/19 02:55:10;;;;;;;35.25;4.50;;;12.20;99.90;;;;;;5044033;28;20043;-77
2023/11/19 02:57:36;;;;;;;36.23;5.97;;;12.30;99.90;;;;;;5027977;28;20033;-77
2023/11/19 03:00:11;;;;;;;30.50;4.53;;;12.30;99.90;;;;;;5027295;28;20029;-77
2023/11/19 03:02:45;;;;;;;36.55;4.93;;;12.30;99.90;;;;;;5028733;28;20210;-77
2023/11/19 03:05:14;;;;;;;30.70;4.35;;;12.30;99.90;;;;;;5044944;28;20271;-77
2023/11/19 03:07:42;;;;;;;30.88;5.50;;;12.30;99.90;;;;;;5027802;28;20018;-77
2023/11/19 03:10:09;;;;;;;32.00;4.45;;;12.40;99.90;;;;;;5047147;28;20037;-77
2023/11/19 03:12:35;;;;;;;31.25;4.40;;;12.30;99.90;;;;;;5047595;28;20297;-77
2023/11/19 03:15:01;;;;;;;20.83;3.38;;;12.30;99.90;;;;;;5014803;28;20056;-76
2023/11/19 03:17:27;;;;;;;34.03;4.70;;;12.40;99.90;;;;;;5048229;28;20044;-76
2023/11/19 03:19:52;;;;;;;29.88;4.53;;;12.40;99.90;;;;;;5047324;28;20045;-77
2023/11/19 03:22:18;;;;;;;28.60;5.57;;;12.40;99.90;;;;;;5048062;28;20033;-77
2023/11/19 03:24:44;;;;;;;30.73;5.35;;;12.40;99.90;;;;;;5030663;28;20214;-77
2023/11/19 03:27:10;;;;;;;32.42;4.53;;;12.40;99.90;;;;;;5047208;28;20279;-77
2023/11/19 03:29:35;;;;;;;30.35;5.20;;;12.30;99.90;;;;;;5047909;28;20025;-77
2023/11/19 03:32:01;;;;;;;31.02;5.57;;;12.40;99.90;;;;;;5047973;28;20064;-77
2023/11/19 03:34:27;;;;;;;33.78;5.13;;;12.40;99.90;;;;;;5047939;28;20021;-77
2023/11/19 03:36:53;;;;;;;33.90;5.18;;;12.40;99.90;;;;;;5046805;28;20306;-76
2023/11/19 03:39:18;;;;;;;32.90;5.22;;;12.40;99.90;;;;;;5046842;28;20080;-77
2023/11/19 03:41:47;;;;;;;34.00;4.45;;;12.40;99.90;;;;;;5048114;28;20033;-76
2023/11/19 03:44:12;;;;;;;28.67;4.80;;;12.40;99.90;;;;;;5046904;28;20183;-76
2023/11/19 03:46:38;;;;;;;30.50;4.80;;;12.40;99.90;;;;;;5047053;28;20033;-76
2023/11/19 03:49:06;;;;;;;40.00;5.90;;;12.50;99.90;;;;;;5013725;28;20342;-77
2023/11/19 03:51:31;;;;;;;24.55;4.72;;;12.50;99.90;;;;;;5046705;28;20195;-77
2023/11/19 03:53:57;;;;;;;33.30;5.38;;;12.50;99.90;;;;;;5046564;28;20033;-77
2023/11/19 03:56:23;;;;;;;33.08;4.65;;;12.50;99.90;;;;;;5046667;28;20108;-77
2023/11/19 03:58:48;;;;;;;30.17;4.63;;;12.50;99.90;;;;;;5046480;28;20226;-77
2023/11/19 04:01:14;;;;;;;25.45;4.88;;;12.50;99.90;;;;;;5046593;28;20029;-78
2023/11/19 04:03:40;;;;;;;41.85;6.13;;;12.50;99.90;;;;;;5046509;28;20033;-77
2023/11/19 04:06:06;;;;;;;43.00;5.85;;;12.40;99.90;;;;;;5047367;28;20021;-77
2023/11/19 04:08:31;;;;;;;29.33;4.88;;;12.40;99.90;;;;;;5030055;28;20057;-77
2023/11/19 04:10:57;;;;;;;34.42;5.43;;;12.30;99.90;;;;;;5046437;28;20040;-77
2023/11/19 04:13:24;;;;;;;34.70;4.95;;;12.30;99.90;;;;;;5029751;28;20033;-77
2023/11/19 04:15:50;;;;;;;31.35;4.93;;;12.30;99.90;;;;;;5046018;28;20044;-77
2023/11/19 04:18:16;;;;;;;33.63;5.18;;;12.30;99.90;;;;;;5047054;28;20021;-77
2023/11/19 04:20:42;;;;;;;35.80;5.82;;;12.30;99.90;;;;;;5013269;28;20083;-77
2023/11/19 04:23:08;;;;;;;35.17;5.97;;;12.40;99.90;;;;;;5047254;28;20033;-77
2023/11/19 04:25:35;;;;;;;36.00;6.05;;;12.30;99.90;;;;;;5029637;28;20074;-77
2023/11/19 04:28:02;;;;;;;24.70;3.88;;;12.30;99.90;;;;;;5045949;28;20314;-77
2023/11/19 04:30:28;;;;;;;31.90;5.88;;;12.30;99.90;;;;;;5045827;28;20033;-78
2023/11/19 04:32:53;;;;;;;33.35;6.32;;;12.30;99.90;;;;;;5045978;28;20088;-77
2023/11/19 04:35:19;;;;;;;33.65;5.47;;;12.30;99.90;;;;;;5029229;28;20056;-77
2023/11/19 04:37:45;;;;;;;34.47;4.95;;;12.40;99.90;;;;;;5029346;28;20041;-77
2023/11/19 04:40:11;;;;;;;23.38;4.57;;;12.40;99.90;;;;;;5029216;28;20029;-78
2023/11/19 04:42:40;;;;;;;30.20;4.82;;;12.30;99.90;;;;;;5045834;28;20191;-77
2023/11/19 04:45:06;;;;;;;22.95;3.95;;;12.40;99.90;;;;;;5029647;28;20187;-77
2023/11/19 04:47:33;;;;;;;26.85;4.03;;;12.40;99.90;;;;;;5045491;28;20013;-77
2023/11/19 04:49:58;;;;;;;32.38;4.70;;;12.40;99.90;;;;;;5029005;28;20045;-77
2023/11/19 04:52:24;;;;;;;30.52;5.30;;;12.40;99.90;;;;;;5045639;28;20041;-77
2023/11/19 04:54:50;;;;;;;34.67;4.75;;;12.40;99.90;;;;;;5012783;28;20100;-77
2023/11/19 04:57:16;;;;;;;28.17;4.13;;;12.40;99.90;;;;;;5029042;28;20029;-78
2023/11/19 04:59:42;;;;;;;31.80;4.47;;;12.40;99.90;;;;;;5045363;28;20183;-77
2023/11/19 05:02:08;;;;;;;28.17;5.05;;;12.40;99.90;;;;;;5029138;28;20022;-77
2023/11/19 05:04:34;;;;;;;29.95;4.90;;;12.40;99.90;;;;;;5045972;28;20239;-77
2023/11/19 05:07:00;;;;;;;38.90;4.53;;;12.40;99.90;;;;;;5012632;28;20038;-77
2023/11/19 05:09:26;;;;;;;37.33;6.30;;;12.40;99.90;;;;;;5045150;28;20029;-77
2023/11/19 05:11:52;;;;;;;25.35;4.32;;;12.50;99.90;;;;;;5045244;28;20033;-77
2023/11/19 05:14:20;;;;;;;25.75;4.15;;;12.50;99.90;;;;;;5045213;28;20052;-77
2023/11/19 05:16:46;;;;;;;33.45;6.00;;;12.50;99.90;;;;;;5029202;28;20334;-77
2023/11/19 05:19:12;;;;;;;29.85;5.45;;;12.50;99.90;;;;;;5028741;28;20033;-77
2023/11/19 05:21:37;;;;;;;27.73;5.00;;;12.50;99.90;;;;;;5028525;28;20277;-77
2023/11/19 05:24:06;;;;;;;28.48;4.25;;;12.50;99.90;;;;;;5028560;28;20227;-77
2023/11/19 05:26:32;;;;;;;32.60;6.25;;;12.50;99.90;;;;;;5044963;28;20025;-77
2023/11/19 05:28:57;;;;;;;25.35;4.20;;;12.50;99.90;;;;;;5045971;28;20242;-77
2023/11/19 05:31:23;;;;;;;24.63;4.07;;;12.50;99.90;;;;;;5027861;28;20040;-77
2023/11/19 05:33:49;;;;;;;29.45;5.13;;;12.50;99.90;;;;;;5044830;28;20029;-77
2023/11/19 05:36:14;;;;;;;29.75;5.45;;;12.50;99.90;;;;;;5028279;28;20276;-77
2023/11/19 05:38:40;;;;;;;24.10;5.43;;;12.50;99.90;;;;;;5044579;28;20026;-77
2023/11/19 05:41:06;;;;;;;30.33;4.68;;;12.50;99.90;;;;;;5011699;28;20044;-77
2023/11/19 05:43:32;;;;;;;45.22;5.38;;;12.50;99.90;;;;;;5028262;28;20207;-77
2023/11/19 05:45:57;;;;;;;40.55;5.85;;;12.50;99.90;;;;;;5044649;28;20021;-77
2023/11/19 05:48:25;;;;;;;35.13;5.68;;;12.50;99.90;;;;;;5044538;28;20284;-77
2023/11/19 05:50:51;;;;;;;27.35;5.05;;;12.50;99.90;;;;;;5028437;28;20033;-77
2023/11/19 05:53:16;;;;;;;24.13;4.00;;;12.50;99.90;;;;;;5044638;28;20271;-78
2023/11/19 05:55:57;;;;;;;27.10;4.30;;;12.50;99.90;;;;;;5045428;28;20029;-77
2023/11/19 05:58:26;;;;;;;34.65;5.35;;;12.50;99.90;;;;;;5044546;28;20314;-78
2023/11/19 06:00:52;;;;;;;37.60;5.37;;;12.50;99.90;;;;;;5027839;28;20295;-77
2023/11/19 06:03:18;;;;;;;38.25;5.10;;;12.40;99.90;;;;;;5028119;28;20622;-77
2023/11/19 06:05:48;;;;;;;30.80;4.50;;;12.40;99.90;;;;;;5028075;28;20029;-77
2023/11/19 06:08:14;;;;;;;31.15;5.25;;;12.50;99.90;;;;;;5044564;28;20029;-77
2023/11/19 06:10:45;;;;;;;24.10;3.83;;;12.50;99.90;;;;;;5027996;28;20064;-77
2023/11/19 06:13:11;;;;;;;29.40;4.90;;;12.50;99.90;;;;;;5028163;28;20029;-77
2023/11/19 06:15:37;;;;;;;13.55;3.72;;;12.50;99.90;;;;;;5044353;28;20043;-77
2023/11/19 06:18:03;;;;;;;28.58;4.18;;;12.50;99.90;;;;;;5044345;28;20275;-78
2023/11/19 06:20:29;;;;;;;26.50;4.53;;;12.50;99.90;;;;;;5027887;28;20081;-78
2023/11/19 06:22:56;;;;;;;26.55;4.25;;;12.50;99.90;;;;;;5045379;28;20025;-77
2023/11/19 06:25:23;;;;;;;38.72;5.95;;;12.50;99.90;;;;;;5027649;28;20030;-78
2023/11/19 06:27:50;;;;;;;33.17;4.93;;;12.50;99.90;;;;;;5027991;28;20025;-77
2023/11/19 06:30:16;;;;;;;34.85;5.28;;;12.40;99.90;;;;;;5044195;28;20092;-78
2023/11/19 06:32:42;;;;;;;23.85;4.20;;;12.40;99.90;;;;;;5045285;28;20290;-77
2023/11/19 06:35:08;;;;;;;29.38;4.22;;;12.40;99.90;;;;;;5044201;28;20022;-77
2023/11/19 06:37:34;;;;;;;31.02;5.55;;;12.40;99.90;;;;;;5044196;28;20053;-77
2023/11/19 06:39:59;;;;;;;33.20;4.95;;;12.40;99.90;;;;;;5044053;28;20087;-78
2023/11/19 06:42:25;;;;;;;35.15;4.47;;;12.30;99.90;;;;;;5044163;28;20021;-78
2023/11/19 06:44:51;;;;;;;25.65;5.93;;;12.20;99.90;;;;;;5047493;28;20025;-77
2023/11/19 06:47:17;;;;;;;24.92;3.67;;;12.20;99.90;;;;;;5048039;28;20029;-78
2023/11/19 06:49:46;;;;;;;28.35;4.43;;;12.10;99.90;;;;;;5047679;28;20247;-78
2023/11/19 06:52:12;;;;;;;33.00;4.60;;;12.10;99.90;;;;;;5048897;28;20045;-78
2023/11/19 06:54:41;;;;;;;27.73;4.05;;;12.10;99.90;;;;;;5047974;28;20037;-78
2023/11/19 06:57:07;;;;;;;33.47;5.03;;;12.10;99.90;;;;;;5015060;28;20179;-78
2023/11/19 06:59:33;;;;;;;39.28;5.90;;;12.10;99.90;;;;;;5014934;28;20033;-77
2023/11/19 07:01:59;;;;;;;31.75;5.40;;;12.10;99.90;;;;;;5031205;28;20021;-77
2023/11/19 07:04:24;;;;;;;38.70;6.38;;;12.10;99.90;;;;;;5030914;28;20085;-78
2023/11/19 07:06:52;;;;;;;24.65;4.15;;;12.10;99.90;;;;;;5047843;28;20025;-77
2023/11/19 07:09:18;;;;;;;30.40;5.40;;;12.10;99.90;;;;;;5047609;28;20064;-77
2023/11/19 07:11:45;;;;;;;23.55;3.75;;;12.10;99.90;;;;;;5047575;28;20029;-77
2023/11/19 07:14:11;;;;;;;34.92;5.85;;;12.10;99.90;;;;;;5031316;28;20089;-78
2023/11/19 07:16:40;;;;;;;35.88;6.65;;;12.10;99.90;;;;;;5048493;28;20048;-78
2023/11/19 07:19:06;;;;;;;23.60;3.90;;;12.10;99.90;;;;;;5048368;28;20025;-77
2023/11/19 07:21:33;;;;;;;24.90;3.70;;;12.10;99.90;;;;;;5031120;28;20021;-77
2023/11/19 07:23:58;;;;;;;31.80;4.93;;;12.00;99.90;;;;;;5048149;28;20101;-78
2023/11/19 07:26:24;;;;;;;26.20;3.95;;;12.00;99.90;;;;;;5014210;28;20021;-78
2023/11/19 07:28:50;;;;;;;29.23;4.45;;;12.00;99.90;;;;;;5047247;28;20089;-79
2023/11/19 07:31:18;;;;;;;23.00;4.28;;;12.00;99.90;;;;;;5048272;28;20034;-78
2023/11/19 07:33:43;;;;;;;26.52;4.60;;;11.90;99.90;;;;;;5014684;28;20022;-78
2023/11/19 07:36:10;;;;;;;36.55;5.00;;;11.80;99.90;;;;;;5047032;28;20029;-79
2023/11/19 07:38:36;;;;;;;28.73;4.22;;;11.80;99.90;;;;;;5047958;28;20279;-79
2023/11/19 07:41:01;;;;;;;33.33;4.13;;;11.70;99.90;;;;;;5046837;28;20032;-78
2023/11/19 07:43:27;;;;;;;29.00;4.80;;;11.70;99.90;;;;;;5047824;28;20022;-79
2023/11/19 07:45:53;;;;;;;24.63;4.13;;;11.60;99.90;;;;;;5046973;28;20040;-79
2023/11/19 07:48:23;;;;;;;27.38;3.95;;;11.60;99.90;;;;;;5047683;28;20097;-79
2023/11/19 07:50:52;;;;;;;;;;;11.60;99.90;;;;;;5047436;28;20021;-78
2023/11/19 07:53:17;;;;;;;31.27;4.55;;;11.50;99.90;;;;;;5046790;28;19993;-78
2023/11/19 07:55:43;;;;;;;26.52;3.55;;;11.50;99.90;;;;;;5046922;28;20183;-78
2023/11/19 07:58:10;;;;;;;32.58;5.47;;;11.50;99.90;;;;;;5047556;28;20025;-78
2023/11/19 08:00:37;;;;;;;35.83;5.25;;;11.50;99.90;;;;;;5030301;28;20038;-78
2023/11/19 08:03:03;;;;;;;26.25;4.47;;;11.50;99.90;;;;;;5030322;28;20021;-77
2023/11/19 08:05:28;;;;;;;21.42;3.25;;;11.50;99.90;;;;;;5030083;28;20289;-78
2023/11/19 08:07:54;;;;;;;32.15;4.93;;;11.50;99.90;;;;;;5013651;28;20040;-78
2023/11/19 08:10:20;;;;;;;33.13;4.82;;;11.50;99.90;;;;;;5047450;28;20025;-78
2023/11/19 08:12:46;;;;;;;27.92;4.18;;;11.50;99.90;;;;;;5046205;28;20033;-78
2023/11/19 08:15:12;;;;;;;51.60;6.88;;;11.60;99.90;;;;;;5046125;28;20033;-77
2023/11/19 08:17:37;;;;;;;41.80;5.50;;;11.60;99.90;;;;;;5013410;28;20036;-78
2023/11/19 08:20:04;;;;;;;32.17;5.57;;;11.60;99.90;;;;;;5046323;28;20033;-78
2023/11/19 08:22:31;;;;;;;42.47;5.82;;;11.60;99.90;;;;;;5029977;28;20037;-78
2023/11/19 08:24:56;;;;;;;45.08;7.15;;;11.60;99.90;;;;;;5046283;28;20024;-78
2023/11/19 08:27:26;;;;;;;36.58;5.82;;;11.60;99.90;;;;;;5029625;28;20029;-78
2023/11/19 08:29:56;;;;;;;28.98;5.00;;;11.60;99.90;;;;;;5030321;28;20040;-78
2023/11/19 08:32:31;;;;;;;;;;;11.60;99.90;;;;;;5047447;28;20100;-78
2023/11/19 08:34:57;;;;;;;35.90;5.20;;;11.70;99.90;;;;;;5046064;28;19908;-77
2023/11/19 08:37:22;;;;;;;22.35;4.40;;;11.70;99.90;;;;;;5046728;28;20092;-78
2023/11/19 08:39:48;;;;;;;32.88;4.68;;;11.70;99.90;;;;;;5045794;28;20041;-78
2023/11/19 08:42:14;;;;;;;19.30;3.33;;;11.70;99.90;;;;;;5029410;28;20155;-78
2023/11/19 08:44:43;;;;;;;34.22;5.38;;;11.70;99.90;;;;;;5046875;28;20021;-77
2023/11/19 08:47:12;;;;;;;31.33;5.38;;;11.80;99.90;;;;;;5045702;28;20057;-77
2023/11/19 08:49:39;;;;;;;26.88;3.92;;;11.80;99.90;;;;;;5045403;28;20207;-78
2023/11/19 08:52:07;;;;;;;24.30;4.65;;;11.80;99.90;;;;;;5045488;28;20037;-77
2023/11/19 08:54:33;;;;;;;31.42;4.00;;;11.80;99.90;;;;;;5045692;28;20053;-77
2023/11/19 08:56:59;;;;;;;16.40;3.25;;;11.90;99.90;;;;;;5045582;28;20032;-77
2023/11/19 08:59:25;;;;;;;21.52;3.45;;;11.80;99.90;;;;;;5045210;28;20327;-77
2023/11/19 09:01:51;;;;;;;30.30;4.57;;;11.90;99.90;;;;;;5045283;28;20026;-77
2023/11/19 09:04:16;;;;;;;29.90;5.10;;;11.80;99.90;;;;;;5028878;28;20041;-77
2023/11/19 09:06:42;;;;;;;27.77;4.15;;;11.80;99.90;;;;;;5044354;28;20028;-77
2023/11/19 09:09:09;;;;;;;19.02;3.97;;;11.90;99.90;;;;;;5028911;28;20092;-77
2023/11/19 09:11:35;;;;;;;25.85;4.25;;;11.90;99.90;;;;;;5028889;28;20025;-77
2023/11/19 09:14:00;;;;;;;25.13;4.70;;;11.90;99.90;;;;;;5028670;28;20163;-77
2023/11/19 09:16:26;;;;;;;21.55;3.95;;;11.90;99.90;;;;;;5046081;28;20044;-77
2023/11/19 09:18:52;;;;;;;25.70;4.22;;;11.90;99.90;;;;;;5045011;28;20097;-77
2023/11/19 09:21:17;;;;;;;31.15;5.65;;;11.90;99.90;;;;;;5046058;28;20014;-77
2023/11/19 09:23:43;;;;;;;18.50;4.20;;;11.90;99.90;;;;;;5044878;28;20026;-77
2023/11/19 09:26:12;;;;;;;23.58;4.75;;;12.00;99.90;;;;;;5044561;28;20029;-77
2023/11/19 09:28:37;;;;;;;29.38;4.43;;;12.00;99.90;;;;;;5045592;28;20025;-77
2023/11/19 09:31:12;;;;;;;33.35;5.03;;;12.10;99.90;;;;;;5045756;28;20056;-77
2023/11/19 09:33:38;;;;;;;27.38;5.00;;;12.10;99.90;;;;;;5045455;28;20037;-77
2023/11/19 09:36:04;;;;;;;29.90;4.38;;;12.10;99.90;;;;;;5028167;28;20025;-77
2023/11/19 09:38:30;;;;;;;31.15;4.82;;;12.10;99.90;;;;;;5044458;28;20283;-78
2023/11/19 09:40:57;;;;;;;29.60;4.57;;;12.10;99.90;;;;;;5045530;28;20037;-76
2023/11/19 09:43:22;;;;;;;26.92;5.20;;;12.10;99.90;;;;;;5044268;28;20025;-77
2023/11/19 09:45:51;;;;;;;21.30;4.07;;;12.10;99.90;;;;;;5045305;28;20310;-77
2023/11/19 09:48:18;;;;;;;30.85;5.03;;;12.20;99.90;;;;;;5044429;28;20047;-77
2023/11/19 09:50:47;;;;;;;35.10;5.93;;;12.20;99.90;;;;;;5028071;28;20303;-77
2023/11/19 09:53:16;;;;;;;26.40;5.00;;;12.20;99.90;;;;;;5044286;28;20029;-76
2023/11/19 09:55:42;;;;;;;27.65;5.20;;;12.20;99.90;;;;;;5044189;28;20064;-77
2023/11/19 09:58:08;;;;;;;30.65;4.65;;;12.20;99.90;;;;;;5027932;28;20419;-77
2023/11/19 10:00:34;;;;;;;23.80;4.70;;;12.20;99.90;;;;;;5027840;28;20028;-79
2023/11/19 10:03:00;;;;;;;21.48;4.45;;;12.20;99.90;;;;;;5044017;28;20029;-77
2023/11/19 10:05:26;;;;;;;25.63;5.53;;;12.30;99.90;;;;;;5027833;28;20036;-77
2023/11/19 10:07:52;;;;;;;31.15;5.35;;;12.30;99.90;;;;;;5044092;28;20218;-77
2023/11/19 10:10:19;;;;;;;50.28;8.40;;;12.30;99.90;;;;;;5044224;28;20222;-77
2023/11/19 10:12:48;;;;;;;33.03;5.28;;;12.30;99.90;;;;;;5044382;28;20058;-77
2023/11/19 10:15:26;;;;;;;23.10;4.78;;;12.30;99.90;;;;;;5027728;28;20614;-77
2023/11/19 10:18:01;;;;;;;37.65;5.40;;;12.30;99.90;;;;;;5029850;28;20060;-78
2023/11/19 10:20:27;;;;;;;30.73;4.15;;;12.30;99.90;;;;;;5049247;28;20112;-77
2023/11/19 10:22:55;;;;;;;24.30;4.32;;;12.30;99.90;;;;;;5049321;28;20286;-77
2023/11/19 10:25:23;;;;;;;24.58;3.83;;;12.40;99.90;;;;;;5031621;28;20045;-78
2023/11/19 10:27:49;;;;;;;25.40;4.88;;;12.40;99.90;;;;;;5032020;28;20190;-77
2023/11/19 10:30:26;;;;;;;24.77;4.40;;;12.40;99.90;;;;;;5048217;28;20025;-78
2023/11/19 10:33:06;;;;;;;20.85;3.35;;;12.40;99.90;;;;;;5031821;28;20088;-77
2023/11/19 10:35:33;;;;;;;30.60;4.50;;;12.40;99.90;;;;;;5048860;28;20057;-77
2023/11/19 10:38:00;;;;;;;23.98;3.80;;;12.50;99.90;;;;;;5048867;28;20225;-77
2023/11/19 10:40:41;;;;;;;35.17;4.90;;;12.50;99.90;;;;;;5031542;28;20101;-77
2023/11/19 10:43:07;;;;;;;25.67;4.07;;;12.50;99.90;;;;;;5047692;28;20044;-77
2023/11/19 10:45:33;;;;;;;30.27;5.10;;;12.50;99.90;;;;;;5031340;28;20045;-78
2023/11/19 10:47:59;;;;;;;19.33;3.42;;;12.50;99.90;;;;;;5047761;28;20085;-77
2023/11/19 10:50:26;;;;;;;30.58;4.53;;;12.60;99.90;;;;;;5047703;28;20095;-77
2023/11/19 10:52:58;;;;;;;26.02;4.55;;;12.50;99.90;;;;;;5031722;28;20029;-77
2023/11/19 10:55:28;;;;;;;22.50;3.97;;;12.50;99.90;;;;;;5047594;28;20032;-77
2023/11/19 10:57:55;;;;;;;27.13;4.45;;;12.50;99.90;;;;;;5031470;28;20097;-77
2023/11/19 11:00:20;;;;;;;25.40;4.30;;;12.50;99.90;;;;;;5031181;28;20183;-77
2023/11/19 11:02:48;;;;;;;16.52;3.38;;;12.50;99.90;;;;;;5047695;28;20202;-77
2023/11/19 11:05:13;;;;;;;29.55;4.00;;;12.50;99.90;;;;;;5031065;28;20057;-77
2023/11/19 11:07:39;;;;;;;20.35;3.92;;;12.50;99.90;;;;;;5030947;28;20013;-77
2023/11/19 11:10:08;;;;;;;15.00;2.70;;;12.60;99.90;;;;;;5047465;28;20033;-77
2023/11/19 11:12:36;;;;;;;22.70;4.38;;;12.60;99.90;;;;;;5031183;28;20301;-77
2023/11/19 11:15:02;;;;;;;24.95;3.42;;;12.60;99.90;;;;;;5030774;28;20033;-77
2023/11/19 11:17:28;;;;;;;27.23;4.70;;;12.60;99.90;;;;;;5047267;28;20022;-77
2023/11/19 11:19:54;;;;;;;21.60;3.10;;;12.70;99.90;;;;;;5047121;28;20057;-77
2023/11/19 11:22:19;;;;;;;19.05;3.00;;;12.70;99.90;;;;;;5030573;28;20079;-77
2023/11/19 11:25:06;;;;;;;19.73;2.65;;;12.70;99.90;;;;;;5030491;28;20029;-77
2023/11/19 11:28:12;;;;;;;22.17;3.15;;;12.70;99.90;;;;;;5047085;28;20045;-77
2023/11/19 11:31:26;;;;;;;18.73;3.17;;;12.80;99.90;;;;;;5046243;28;20037;-77
2023/11/19 11:34:19;;;;;;;17.80;2.97;;;12.80;99.90;;;;;;5033872;28;20131;-77
2023/11/19 11:37:09;;;;;;;16.25;3.10;;;12.90;99.90;;;;;;5031642;28;20354;-77
2023/11/19 11:39:36;;;;;;;32.88;9.20;;;12.90;99.90;;;;;;5047417;28;20056;-77
2023/11/19 11:42:17;;;;;;;97.88;35.03;;;12.90;99.90;;;;;;5046841;28;20056;-78
2023/11/19 11:45:07;;;;;;;97.78;35.90;;;12.90;99.90;;;;;;5047984;28;20275;-77
2023/11/19 11:47:42;;;;;;;58.20;24.48;;;12.90;99.90;;;;;;5047547;28;20082;-76
2023/11/19 11:50:09;;;;;;;428.38;204.52;;;12.90;99.90;;;;;;5046493;28;20049;-77
2023/11/19 11:52:57;;;;;;;124.57;50.05;;;12.90;99.90;;;;;;5047584;28;20037;-77
2023/11/19 11:55:38;;;;;;;27.15;7.50;;;12.90;99.90;;;;;;5047263;28;20047;-77
2023/11/19 11:58:07;;;;;;;27.30;7.80;;;12.90;99.90;;;;;;5047585;28;20267;-77
2023/11/19 12:00:37;;;;;;;47.85;26.52;;;12.90;99.90;;;;;;5030115;28;20100;-77
2023/11/19 12:03:03;;;;;;;;;;;12.90;99.90;;;;;;5031116;28;20021;-77
2023/11/19 12:05:29;;;;;;;39.03;18.15;;;13.00;99.90;;;;;;5046419;28;19909;-77
2023/11/19 12:07:57;;;;;;;25.52;9.85;;;13.00;99.90;;;;;;5047254;28;20065;-77
2023/11/19 12:10:23;;;;;;;19.10;7.32;;;13.00;99.90;;;;;;5047259;28;20018;-77
2023/11/19 12:12:49;;;;;;;38.75;25.67;;;13.00;99.90;;;;;;5029664;28;20067;-77
2023/11/19 12:15:14;;;;;;;24.60;5.03;;;13.00;99.90;;;;;;5029795;28;20048;-77
2023/11/19 12:17:50;;;;;;;13.80;4.80;;;13.00;99.90;;;;;;5046737;28;20035;-77
2023/11/19 12:20:17;;;;;;;15.52;3.70;;;13.00;99.90;;;;;;5030102;28;20063;-77
2023/11/19 12:22:48;;;;;;;22.13;6.15;;;13.00;99.90;;;;;;5046153;28;20045;-77
2023/11/19 12:25:13;;;;;;;18.90;9.80;;;13.00;99.90;;;;;;5046201;28;20117;-77
2023/11/19 12:27:49;;;;;;;20.83;4.97;;;13.00;99.90;;;;;;5029537;28;20017;-77
2023/11/19 12:30:22;;;;;;;9.80;2.60;;;13.00;99.90;;;;;;5046607;28;20033;-77
2023/11/19 12:32:49;;;;;;;7.03;2.30;;;13.00;99.90;;;;;;5045922;28;20075;-78
2023/11/19 12:35:15;;;;;;;14.25;2.45;;;13.00;99.90;;;;;;5045635;28;20259;-78
2023/11/19 12:37:41;;;;;;;9.90;3.10;;;13.10;99.90;;;;;;5029456;28;20092;-77
2023/11/19 12:40:17;;;;;;;13.73;3.22;;;13.10;99.90;;;;;;5029218;28;20017;-77